Time;durP1;ratioP1;P1;durP2;ratioP2;P2;SDS_P1;SDS_P2;PMS_P1;PMS_P2;Temp;Humidity;BMP_temperature;BMP_pressure;BME280_temperature;BME280_humidity;BME280_pressure;Samples;Min_cycle;Max_cycle;Signal;HPM_P1;HPM_P2
2021/05/03 00:01:54;;;;;;;2.00;1.60;;;23.20;32.50;;;;;;5092500;28;20209;-45
2021/05/03 00:04:20;;;;;;;1.80;1.70;;;23.30;33.20;;;;;;5092794;28;20200;-44
2021/05/03 00:06:46;;;;;;;1.70;1.60;;;23.20;32.50;;;;;;5091525;28;20200;-34
2021/05/03 00:09:12;;;;;;;1.60;1.50;;;23.20;32.50;;;;;;5093580;28;20273;-45
2021/05/03 00:11:38;;;;;;;2.10;1.60;;;23.20;32.50;;;;;;5092424;28;20550;-44
2021/05/03 00:14:04;;;;;;;1.63;1.52;;;23.20;32.50;;;;;;5092666;28;20200;-37
2021/05/03 00:16:30;;;;;;;1.83;1.73;;;23.20;32.50;;;;;;5090673;28;20568;-39
2021/05/03 00:18:56;;;;;;;1.90;1.80;;;23.20;32.50;;;;;;5092929;28;20207;-35
2021/05/03 00:21:22;;;;;;;1.75;1.65;;;23.20;32.50;;;;;;5092053;28;20680;-43
2021/05/03 00:23:48;;;;;;;1.80;1.70;;;23.20;32.50;;;;;;5090751;28;20200;-46
2021/05/03 00:26:14;;;;;;;1.92;1.70;;;23.20;32.50;;;;;;5091709;28;20203;-47
2021/05/03 00:28:40;;;;;;;1.45;1.35;;;23.20;32.50;;;;;;5091456;28;20251;-48
2021/05/03 00:31:06;;;;;;;1.60;1.50;;;23.20;32.50;;;;;;5091689;28;20204;-41
2021/05/03 00:33:32;;;;;;;1.70;1.60;;;23.20;32.50;;;;;;5091930;28;20204;-39
2021/05/03 00:35:58;;;;;;;1.50;1.40;;;23.20;32.50;;;;;;5093099;28;20216;-35
2021/05/03 00:38:24;;;;;;;1.98;1.80;;;23.20;32.50;;;;;;5091734;28;20200;-41
2021/05/03 00:40:50;;;;;;;1.75;1.52;;;23.20;32.50;;;;;;5088730;28;20230;-35
2021/05/03 00:43:19;;;;;;;1.90;1.80;;;23.20;32.50;;;;;;5091479;28;20611;-34
2021/05/03 00:45:45;;;;;;;1.70;1.60;;;23.20;32.50;;;;;;5091841;28;20743;-34
2021/05/03 00:48:11;;;;;;;1.75;1.60;;;23.20;32.40;;;;;;5091421;28;20196;-37
2021/05/03 00:50:37;;;;;;;1.70;1.60;;;23.20;32.40;;;;;;5090093;28;20224;-37
2021/05/03 00:53:03;;;;;;;1.65;1.55;;;23.20;32.30;;;;;;5088818;28;20295;-40
2021/05/03 00:55:29;;;;;;;2.63;1.58;;;23.20;32.40;;;;;;5092893;28;20282;-40
2021/05/03 00:57:55;;;;;;;1.85;1.58;;;23.20;32.50;;;;;;5091638;28;20197;-33
2021/05/03 01:00:21;;;;;;;1.52;1.42;;;23.20;32.50;;;;;;5090179;28;20559;-37
2021/05/03 01:02:47;;;;;;;2.75;1.70;;;23.20;32.50;;;;;;5088334;28;20215;-34
2021/05/03 01:05:13;;;;;;;1.85;1.70;;;23.20;32.50;;;;;;5092389;28;20555;-50
2021/05/03 01:07:39;;;;;;;1.55;1.45;;;23.20;32.50;;;;;;5091995;28;20200;-35
2021/05/03 01:10:05;;;;;;;2.78;1.92;;;23.20;32.50;;;;;;5091635;28;20719;-48
2021/05/03 01:12:31;;;;;;;1.50;1.40;;;23.20;32.50;;;;;;5091923;28;20271;-53
2021/05/03 01:14:57;;;;;;;1.42;1.33;;;23.20;32.50;;;;;;5092135;28;20648;-34
2021/05/03 01:17:23;;;;;;;1.60;1.50;;;23.20;32.50;;;;;;5089883;28;20232;-41
2021/05/03 01:19:49;;;;;;;1.65;1.55;;;23.20;32.50;;;;;;5092562;28;20703;-46
2021/05/03 01:22:15;;;;;;;1.48;1.38;;;23.20;32.50;;;;;;5090813;28;20196;-37
2021/05/03 01:24:41;;;;;;;1.70;1.60;;;23.20;32.50;;;;;;5092218;28;20200;-41
2021/05/03 01:27:07;;;;;;;1.70;1.60;;;23.20;32.50;;;;;;5091400;28;20197;-35
2021/05/03 01:29:33;;;;;;;2.00;1.50;;;23.20;32.50;;;;;;5092137;28;20266;-34
2021/05/03 01:31:59;;;;;;;1.40;1.30;;;23.20;32.50;;;;;;5090815;28;20193;-37
2021/05/03 01:34:25;;;;;;;1.45;1.35;;;23.20;32.50;;;;;;5087756;28;20208;-40
2021/05/03 01:36:51;;;;;;;1.77;1.48;;;23.20;32.50;;;;;;5090432;28;20242;-43
2021/05/03 01:39:17;;;;;;;1.70;1.60;;;23.20;32.50;;;;;;5092204;28;20623;-45
2021/05/03 01:41:43;;;;;;;1.60;1.40;;;23.20;32.50;;;;;;5090236;28;20201;-42
2021/05/03 01:44:09;;;;;;;1.73;1.63;;;23.20;32.50;;;;;;5092036;28;20253;-35
2021/05/03 01:46:35;;;;;;;2.22;1.63;;;23.20;32.50;;;;;;5090855;28;20691;-37
2021/05/03 01:49:01;;;;;;;1.65;1.55;;;23.20;32.50;;;;;;5089587;28;20228;-37
2021/05/03 01:51:27;;;;;;;1.50;1.40;;;23.20;32.50;;;;;;5090858;28;20714;-34
2021/05/03 01:53:53;;;;;;;2.25;1.45;;;23.20;32.50;;;;;;5091787;28;20204;-46
2021/05/03 01:56:19;;;;;;;1.50;1.40;;;23.20;32.50;;;;;;5090223;28;20224;-38
2021/05/03 01:58:45;;;;;;;1.60;1.50;;;23.20;32.50;;;;;;5090508;28;20197;-36
2021/05/03 02:01:10;;;;;;;1.50;1.40;;;23.20;32.50;;;;;;5089930;28;20562;-34
2021/05/03 02:03:36;;;;;;;1.75;1.60;;;23.20;32.50;;;;;;5089859;28;20200;-34
2021/05/03 02:06:02;;;;;;;1.60;1.50;;;23.20;32.50;;;;;;5090997;28;20556;-43
2021/05/03 02:08:28;;;;;;;1.50;1.40;;;23.20;32.50;;;;;;5090454;28;20209;-37
2021/05/03 02:10:54;;;;;;;1.52;1.42;;;23.20;32.50;;;;;;5085057;28;20224;-35
2021/05/03 02:13:20;;;;;;;1.75;1.65;;;23.20;32.50;;;;;;5090374;28;20657;-34
2021/05/03 02:15:47;;;;;;;1.73;1.55;;;23.20;32.50;;;;;;5091230;28;20227;-34
2021/05/03 02:18:13;;;;;;;1.48;1.38;;;23.20;32.50;;;;;;5090221;28;20197;-34
2021/05/03 02:20:39;;;;;;;2.58;1.40;;;23.20;32.50;;;;;;5091503;28;20216;-34
2021/05/03 02:23:05;;;;;;;1.90;1.58;;;23.20;32.50;;;;;;5086192;28;20201;-34
2021/05/03 02:25:31;;;;;;;1.52;1.40;;;23.20;32.50;;;;;;5078748;28;20240;-37
2021/05/03 02:27:58;;;;;;;1.60;1.50;;;23.20;32.50;;;;;;5090359;28;20196;-35
2021/05/03 02:30:24;;;;;;;1.55;1.45;;;23.20;32.60;;;;;;5090086;28;20223;-44
2021/05/03 02:32:50;;;;;;;1.80;1.70;;;23.20;32.50;;;;;;5091226;28;20553;-34
2021/05/03 02:35:16;;;;;;;1.77;1.48;;;23.20;32.50;;;;;;5090282;28;20208;-40
2021/05/03 02:37:43;;;;;;;1.50;1.40;;;23.20;32.50;;;;;;5088523;28;20588;-47
2021/05/03 02:40:09;;;;;;;1.75;1.65;;;23.20;32.50;;;;;;5090029;28;20588;-45
2021/05/03 02:42:34;;;;;;;1.80;1.50;;;23.20;32.50;;;;;;5090293;28;20209;-47
2021/05/03 02:45:00;;;;;;;1.50;1.40;;;23.20;32.50;;;;;;5091152;28;20212;-37
2021/05/03 02:47:26;;;;;;;1.73;1.63;;;23.20;32.50;;;;;;5090600;28;20663;-40
2021/05/03 02:49:52;;;;;;;1.42;1.30;;;23.20;32.50;;;;;;5089720;28;20220;-36
2021/05/03 02:52:18;;;;;;;1.60;1.50;;;23.20;32.50;;;;;;5089104;28;20266;-38
2021/05/03 02:54:44;;;;;;;1.27;1.17;;;23.20;32.50;;;;;;5088053;28;20196;-34
2021/05/03 02:57:10;;;;;;;1.60;1.50;;;23.20;32.50;;;;;;5089306;28;20232;-38
2021/05/03 02:59:36;;;;;;;1.73;1.63;;;23.20;32.50;;;;;;5089752;28;20216;-38
2021/05/03 03:02:02;;;;;;;1.40;1.30;;;23.20;32.50;;;;;;5091396;28;20261;-42
2021/05/03 03:04:28;;;;;;;1.50;1.40;;;23.20;32.50;;;;;;5090154;28;20200;-45
2021/05/03 03:06:54;;;;;;;1.98;1.33;;;23.20;32.50;;;;;;5091031;28;20208;-37
2021/05/03 03:09:20;;;;;;;1.45;1.35;;;23.20;32.50;;;;;;5091880;28;20220;-38
2021/05/03 03:11:47;;;;;;;1.52;1.42;;;23.20;32.50;;;;;;5095342;28;20269;-43
2021/05/03 03:14:13;;;;;;;1.33;1.25;;;23.20;32.50;;;;;;5094023;28;20227;-41
2021/05/03 03:16:39;;;;;;;1.40;1.30;;;23.20;32.50;;;;;;5094695;28;20282;-34
2021/05/03 03:19:05;;;;;;;1.58;1.48;;;23.20;32.50;;;;;;5093127;28;20248;-35
2021/05/03 03:21:31;;;;;;;1.55;1.45;;;23.20;32.50;;;;;;5094910;28;20207;-34
2021/05/03 03:23:57;;;;;;;1.60;1.50;;;23.20;32.50;;;;;;5093595;28;20200;-34
2021/05/03 03:26:23;;;;;;;1.63;1.52;;;23.20;32.50;;;;;;5094561;28;20200;-35
2021/05/03 03:28:49;;;;;;;1.80;1.40;;;23.20;33.10;;;;;;5093819;28;20708;-35
2021/05/03 03:31:15;;;;;;;1.67;1.58;;;23.20;33.50;;;;;;5092703;28;20211;-34
2021/05/03 03:33:41;;;;;;;1.60;1.50;;;23.20;33.30;;;;;;5093200;28;20770;-42
2021/05/03 03:36:07;;;;;;;1.48;1.38;;;23.10;32.90;;;;;;5094594;28;20222;-34
2021/05/03 03:38:33;;;;;;;1.40;1.30;;;23.20;32.90;;;;;;5093713;28;20680;-40
2021/05/03 03:40:59;;;;;;;1.60;1.48;;;23.20;32.90;;;;;;5093530;28;20211;-36
2021/05/03 03:43:25;;;;;;;1.65;1.55;;;23.20;32.90;;;;;;5092751;28;20566;-37
2021/05/03 03:45:51;;;;;;;1.75;1.65;;;23.20;32.80;;;;;;5094606;28;20216;-42
2021/05/03 03:48:17;;;;;;;1.40;1.30;;;23.20;32.90;;;;;;5093559;28;20223;-35
2021/05/03 03:50:43;;;;;;;1.25;1.15;;;23.20;32.80;;;;;;5092989;28;20203;-35
2021/05/03 03:53:09;;;;;;;1.60;1.50;;;23.20;32.80;;;;;;5092282;28;20201;-35
2021/05/03 03:55:35;;;;;;;1.60;1.45;;;23.20;32.80;;;;;;5093544;28;20216;-46
2021/05/03 03:58:01;;;;;;;1.17;1.10;;;23.20;32.80;;;;;;5093425;28;20204;-44
2021/05/03 04:00:27;;;;;;;2.17;1.40;;;23.20;32.70;;;;;;5092940;28;21688;-44
2021/05/03 04:02:54;;;;;;;1.50;1.40;;;23.20;32.60;;;;;;5094506;28;20208;-44
2021/05/03 04:05:30;;;;;;;2.53;1.50;;;23.20;32.70;;;;;;5091628;28;20211;-39
2021/05/03 04:08:00;;;;;;;1.63;1.52;;;23.20;32.70;;;;;;5094468;28;20199;-38
2021/05/03 04:10:36;;;;;;;1.80;1.30;;;23.20;32.70;;;;;;5091200;28;20216;-35
2021/05/03 04:13:38;;;;;;;1.42;1.33;;;23.20;32.70;;;;;;5091765;28;20204;-43
2021/05/03 04:21:41;;;;;;;1.40;1.30;;;23.20;32.80;;;;;;5092443;28;20667;-41
2021/05/03 04:24:11;;;;;;;1.50;1.40;;;23.20;32.80;;;;;;5077304;28;20325;-34
2021/05/03 04:26:36;;;;;;;1.40;1.30;;;23.20;32.80;;;;;;5093932;28;20299;-43
2021/05/03 04:29:02;;;;;;;1.77;1.40;;;23.20;32.70;;;;;;5088936;28;20224;-36
2021/05/03 04:31:28;;;;;;;1.83;1.30;;;23.20;32.80;;;;;;5092732;28;20203;-36
2021/05/03 04:33:54;;;;;;;1.60;1.50;;;23.20;32.80;;;;;;5092211;28;20204;-38
2021/05/03 04:36:20;;;;;;;1.60;1.50;;;23.20;32.80;;;;;;5092193;28;20228;-36
2021/05/03 04:38:46;;;;;;;1.45;1.35;;;23.20;32.80;;;;;;5091610;28;20224;-36
2021/05/03 04:41:12;;;;;;;1.70;1.27;;;23.20;32.80;;;;;;5091305;28;20204;-41
2021/05/03 04:43:38;;;;;;;2.20;1.65;;;23.20;32.80;;;;;;5092356;28;20207;-50
2021/05/03 04:46:04;;;;;;;1.48;1.30;;;23.20;33.40;;;;;;5091824;28;20212;-45
2021/05/03 04:48:30;;;;;;;1.48;1.38;;;23.20;32.70;;;;;;5093295;28;20288;-35
2021/05/03 04:50:56;;;;;;;1.50;1.40;;;23.20;32.70;;;;;;5091502;28;20212;-36
2021/05/03 04:53:22;;;;;;;1.30;1.20;;;23.20;32.70;;;;;;5091039;28;20257;-37
2021/05/03 04:55:48;;;;;;;1.98;1.40;;;23.20;32.80;;;;;;5091710;28;20699;-35
2021/05/03 04:58:14;;;;;;;1.63;1.40;;;23.20;32.70;;;;;;5093119;28;20203;-41
2021/05/03 05:00:40;;;;;;;1.40;1.30;;;23.20;32.70;;;;;;5091749;28;20599;-46
2021/05/03 05:03:06;;;;;;;1.35;1.25;;;23.20;32.60;;;;;;5091170;28;20253;-35
2021/05/03 05:05:32;;;;;;;1.58;1.33;;;23.20;32.50;;;;;;5091093;28;20268;-35
2021/05/03 05:07:58;;;;;;;1.40;1.30;;;23.20;32.50;;;;;;5092920;28;20200;-37
2021/05/03 05:10:24;;;;;;;1.45;1.35;;;23.20;32.50;;;;;;5091277;28;20573;-37
2021/05/03 05:12:50;;;;;;;1.52;1.02;;;23.20;32.50;;;;;;5091076;28;20209;-36
2021/05/03 05:15:16;;;;;;;1.50;1.40;;;23.20;32.60;;;;;;5092066;28;20253;-34
2021/05/03 05:17:42;;;;;;;2.08;1.35;;;23.20;32.60;;;;;;5091867;28;20283;-39
2021/05/03 05:20:08;;;;;;;2.45;1.23;;;23.20;32.50;;;;;;5092536;28;20212;-39
2021/05/03 05:22:34;;;;;;;1.30;1.20;;;23.20;32.50;;;;;;5090536;28;20201;-40
2021/05/03 05:25:00;;;;;;;1.33;1.23;;;23.20;32.50;;;;;;5087767;28;20197;-38
2021/05/03 05:27:26;;;;;;;2.35;1.50;;;23.20;32.50;;;;;;5091422;28;20208;-35
2021/05/03 05:29:52;;;;;;;1.23;1.17;;;23.20;32.70;;;;;;5092001;28;20231;-35
2021/05/03 05:32:18;;;;;;;1.40;1.30;;;23.20;32.50;;;;;;5090758;28;20654;-35
2021/05/03 05:34:44;;;;;;;1.25;1.20;;;23.20;32.50;;;;;;5091108;28;20208;-39
2021/05/03 05:37:11;;;;;;;1.42;1.30;;;23.20;32.50;;;;;;5089460;28;20596;-48
2021/05/03 05:39:37;;;;;;;1.27;1.20;;;23.20;32.50;;;;;;5088209;28;20245;-39
2021/05/03 05:42:03;;;;;;;1.40;1.30;;;23.20;32.50;;;;;;5091809;28;20309;-39
2021/05/03 05:44:29;;;;;;;1.30;1.20;;;23.20;32.50;;;;;;5090430;28;20204;-39
2021/05/03 05:46:55;;;;;;;1.92;1.50;;;23.20;32.50;;;;;;5091681;28;20266;-36
2021/05/03 05:49:21;;;;;;;1.38;1.27;;;23.20;32.50;;;;;;5088739;28;20791;-41
2021/05/03 05:51:47;;;;;;;1.38;1.27;;;23.20;32.50;;;;;;5085526;28;20204;-35
2021/05/03 05:54:13;;;;;;;1.50;1.40;;;23.20;32.50;;;;;;5087707;28;20254;-41
2021/05/03 05:56:39;;;;;;;1.15;1.13;;;23.20;32.50;;;;;;5091971;28;20228;-39
2021/05/03 05:59:06;;;;;;;1.55;1.30;;;23.20;32.50;;;;;;5090472;28;20216;-36
2021/05/03 06:01:32;;;;;;;1.02;0.93;;;23.20;32.50;;;;;;5091857;28;20212;-35
2021/05/03 06:03:58;;;;;;;1.55;1.20;;;23.20;32.50;;;;;;5090124;28;20562;-37
2021/05/03 06:06:24;;;;;;;1.95;1.40;;;23.20;32.50;;;;;;5091745;28;20204;-41
2021/05/03 06:08:50;;;;;;;3.25;1.30;;;23.20;33.30;;;;;;5084682;28;20247;-41
2021/05/03 06:11:16;;;;;;;2.90;1.55;;;23.20;33.30;;;;;;5084188;28;20238;-43
2021/05/03 06:13:42;;;;;;;4.20;1.73;;;23.30;33.20;;;;;;5088444;28;20243;-40
2021/05/03 06:16:08;;;;;;;2.70;1.75;;;23.30;33.40;;;;;;5090730;28;20321;-48
2021/05/03 06:18:34;;;;;;;2.30;1.60;;;23.20;33.40;;;;;;5090733;28;20217;-44
2021/05/03 06:21:00;;;;;;;4.40;3.75;;;23.20;33.60;;;;;;5090198;28;20200;-38
2021/05/03 06:23:26;;;;;;;6.25;5.65;;;22.80;27.50;;;;;;5087194;28;20208;-38
2021/05/03 06:25:52;;;;;;;5.97;5.30;;;18.00;27.20;;;;;;5073625;28;20292;-36
2021/05/03 06:28:18;;;;;;;5.77;4.67;;;16.00;31.00;;;;;;5085589;28;20704;-35
2021/05/03 06:30:45;;;;;;;4.23;3.93;;;18.00;30.30;;;;;;5087355;28;20204;-44
2021/05/03 06:33:11;;;;;;;4.97;3.10;;;19.70;29.60;;;;;;5090156;28;20204;-42
2021/05/03 06:35:38;;;;;;;3.10;2.80;;;20.60;28.70;;;;;;5087991;28;20214;-33
2021/05/03 06:38:06;;;;;;;3.50;2.30;;;21.20;28.30;;;;;;5089815;28;20318;-35
2021/05/03 06:40:32;;;;;;;2.50;2.17;;;21.60;28.20;;;;;;5088470;28;20239;-36
2021/05/03 06:42:57;;;;;;;2.60;2.40;;;21.80;28.20;;;;;;5089842;28;20208;-38
2021/05/03 06:45:23;;;;;;;3.60;2.30;;;22.00;28.30;;;;;;5083569;28;20220;-39
2021/05/03 06:47:50;;;;;;;2.20;2.00;;;22.10;28.30;;;;;;5089777;28;20210;-42
2021/05/03 06:50:16;;;;;;;2.10;2.00;;;22.20;28.40;;;;;;5089557;28;20233;-36
2021/05/03 06:52:44;;;;;;;2.73;1.93;;;22.30;28.50;;;;;;5088753;28;20204;-45
2021/05/03 06:55:10;;;;;;;2.50;2.07;;;22.40;28.60;;;;;;5087506;28;20196;-46
2021/05/03 06:57:36;;;;;;;2.53;2.20;;;22.40;28.60;;;;;;5084481;28;20284;-36
2021/05/03 07:00:02;;;;;;;2.20;2.00;;;22.50;28.60;;;;;;5089756;28;20203;-37
2021/05/03 07:02:28;;;;;;;2.07;1.90;;;22.60;28.60;;;;;;5089503;28;20211;-39
2021/05/03 07:04:54;;;;;;;1.90;1.80;;;22.60;28.60;;;;;;5088514;28;20733;-44
2021/05/03 07:07:20;;;;;;;4.07;2.37;;;22.60;28.60;;;;;;5090654;28;20200;-39
2021/05/03 07:09:47;;;;;;;1.93;1.80;;;22.70;28.70;;;;;;5087119;28;20415;-35
2021/05/03 07:12:13;;;;;;;2.00;1.83;;;22.70;28.60;;;;;;5089069;28;20196;-34
2021/05/03 07:14:39;;;;;;;2.40;2.20;;;22.70;28.70;;;;;;5086650;28;20211;-40
2021/05/03 07:17:05;;;;;;;2.93;1.97;;;22.70;28.60;;;;;;5071556;28;20259;-38
2021/05/03 07:19:31;;;;;;;2.20;2.00;;;22.70;28.70;;;;;;5089936;28;20219;-40
2021/05/03 07:21:57;;;;;;;2.57;1.60;;;22.70;28.80;;;;;;5088221;28;20215;-39
2021/05/03 07:24:23;;;;;;;1.50;1.40;;;22.80;29.00;;;;;;5089159;28;20203;-44
2021/05/03 07:26:49;;;;;;;1.70;1.60;;;22.90;29.10;;;;;;5086701;28;20238;-35
2021/05/03 07:29:15;;;;;;;1.70;1.60;;;23.00;29.20;;;;;;5088112;28;20220;-48
2021/05/03 07:31:41;;;;;;;2.07;1.60;;;23.00;29.20;;;;;;5075089;28;20231;-36
2021/05/03 07:34:07;;;;;;;2.30;1.40;;;23.00;29.20;;;;;;5083003;28;20197;-38
2021/05/03 07:36:33;;;;;;;2.05;1.60;;;23.00;29.20;;;;;;5089603;28;20235;-42
2021/05/03 07:38:59;;;;;;;1.60;1.40;;;23.00;29.40;;;;;;5090318;28;20216;-34
2021/05/03 07:41:25;;;;;;;1.75;1.65;;;23.00;29.30;;;;;;5088510;28;20605;-34
2021/05/03 07:43:51;;;;;;;1.97;1.40;;;23.00;29.30;;;;;;5087964;28;20200;-41
2021/05/03 07:46:24;;;;;;;3.08;1.52;;;23.10;29.40;;;;;;5085293;28;20254;-37
2021/05/03 07:48:50;;;;;;;4.20;1.60;;;23.10;29.40;;;;;;5087767;28;20240;-43
2021/05/03 07:51:16;;;;;;;1.70;1.60;;;23.10;29.40;;;;;;5089928;28;20265;-44
2021/05/03 07:53:42;;;;;;;1.40;1.30;;;23.10;29.80;;;;;;5088831;28;20216;-50
2021/05/03 07:56:13;;;;;;;2.93;1.87;;;23.10;29.60;;;;;;5093445;28;20213;-35
2021/05/03 07:58:39;;;;;;;2.83;1.55;;;23.20;29.90;;;;;;5091877;28;20315;-35
2021/05/03 08:01:05;;;;;;;2.00;1.85;;;23.20;29.90;;;;;;5091602;28;20546;-34
2021/05/03 08:03:31;;;;;;;1.60;1.50;;;23.10;29.90;;;;;;5091372;28;20204;-36
2021/05/03 08:05:57;;;;;;;2.20;1.52;;;23.10;29.90;;;;;;5090790;28;20209;-40
2021/05/03 08:08:23;;;;;;;3.23;1.80;;;23.20;29.90;;;;;;5080335;28;20235;-34
2021/05/03 08:10:49;;;;;;;1.67;1.57;;;23.10;29.60;;;;;;5093736;28;20257;-39
2021/05/03 08:13:15;;;;;;;3.05;1.90;;;23.10;29.50;;;;;;5093804;28;20664;-39
2021/05/03 08:15:46;;;;;;;2.17;1.67;;;23.10;29.30;;;;;;5092943;28;20196;-34
2021/05/03 08:18:12;;;;;;;1.90;1.70;;;23.00;29.70;;;;;;5094060;28;20240;-35
2021/05/03 08:20:38;;;;;;;1.58;1.35;;;23.00;29.20;;;;;;5093851;28;20206;-38
2021/05/03 08:23:08;;;;;;;1.65;1.55;;;23.00;29.20;;;;;;5093986;28;20227;-50
2021/05/03 08:25:34;;;;;;;1.88;1.70;;;23.00;29.20;;;;;;5093154;28;20620;-39
2021/05/03 08:28:00;;;;;;;2.38;1.60;;;23.00;29.10;;;;;;5093707;28;20224;-34
2021/05/03 08:30:26;;;;;;;2.80;1.90;;;23.00;29.20;;;;;;5093680;28;20245;-35
2021/05/03 08:32:52;;;;;;;2.00;1.90;;;23.00;28.90;;;;;;5093852;28;20234;-40
2021/05/03 08:35:18;;;;;;;2.03;1.90;;;23.00;28.80;;;;;;5093041;28;20226;-37
2021/05/03 08:37:44;;;;;;;1.73;1.63;;;23.00;28.50;;;;;;5089935;28;20572;-34
2021/05/03 08:40:10;;;;;;;1.90;1.80;;;23.00;28.50;;;;;;5085215;28;20640;-45
2021/05/03 08:42:36;;;;;;;2.33;2.13;;;23.00;28.20;;;;;;5093314;28;20219;-36
2021/05/03 08:45:02;;;;;;;2.50;1.70;;;23.00;28.30;;;;;;5092890;28;20220;-36
2021/05/03 08:47:33;;;;;;;2.17;2.08;;;23.00;28.00;;;;;;5093256;28;20216;-37
2021/05/03 08:50:07;;;;;;;2.38;2.17;;;23.00;28.00;;;;;;5093141;28;20283;-34
2021/05/03 08:52:40;;;;;;;1.70;1.60;;;23.00;28.00;;;;;;5091964;28;20211;-45
2021/05/03 08:55:06;;;;;;;1.92;1.73;;;23.00;28.00;;;;;;5091425;28;20620;-41
2021/05/03 08:57:32;;;;;;;2.13;1.80;;;23.00;28.00;;;;;;5092504;28;20239;-34
2021/05/03 08:59:58;;;;;;;1.67;1.58;;;23.00;28.00;;;;;;5092479;28;20208;-43
2021/05/03 09:02:24;;;;;;;1.85;1.75;;;23.10;28.10;;;;;;5092487;28;20204;-43
2021/05/03 09:04:50;;;;;;;1.50;1.40;;;23.10;28.10;;;;;;5085940;28;20300;-45
2021/05/03 09:07:16;;;;;;;1.63;1.52;;;23.00;28.00;;;;;;5083449;28;20224;-44
2021/05/03 09:09:42;;;;;;;2.58;1.85;;;23.10;28.50;;;;;;5092060;28;20211;-37
2021/05/03 09:12:08;;;;;;;4.18;2.20;;;23.10;28.10;;;;;;5089000;28;20665;-34
2021/05/03 09:14:34;;;;;;;1.88;1.77;;;23.10;27.30;;;;;;5090612;28;20200;-48
2021/05/03 09:17:00;;;;;;;2.20;2.00;;;23.10;28.10;;;;;;5090126;28;20247;-35
2021/05/03 09:19:26;;;;;;;1.90;1.80;;;23.10;28.00;;;;;;5089002;28;20201;-34
2021/05/03 09:21:52;;;;;;;2.22;2.03;;;23.10;27.90;;;;;;5091996;28;20223;-33
2021/05/03 09:24:20;;;;;;;2.90;1.80;;;23.10;28.10;;;;;;5088408;28;20196;-39
2021/05/03 09:26:48;;;;;;;1.88;1.60;;;23.10;28.20;;;;;;5087018;28;20212;-47
2021/05/03 09:29:14;;;;;;;2.40;1.60;;;23.20;28.50;;;;;;5091850;28;20309;-37
2021/05/03 09:31:40;;;;;;;2.10;1.90;;;23.20;28.20;;;;;;5091753;28;20223;-42
2021/05/03 09:34:06;;;;;;;2.20;2.10;;;23.10;27.50;;;;;;5091061;28;20766;-42
2021/05/03 09:36:31;;;;;;;2.75;2.08;;;23.10;27.40;;;;;;5091442;28;20303;-49
2021/05/03 09:38:57;;;;;;;1.90;1.73;;;23.10;27.60;;;;;;5088183;28;20220;-37
2021/05/03 09:41:24;;;;;;;1.83;1.73;;;23.10;27.30;;;;;;5084323;28;20246;-42
2021/05/03 09:43:50;;;;;;;1.88;1.70;;;23.10;27.30;;;;;;5090277;28;20208;-35
2021/05/03 09:46:16;;;;;;;2.13;1.70;;;23.10;27.00;;;;;;5091634;28;20208;-35
2021/05/03 09:48:42;;;;;;;1.80;1.70;;;23.10;26.90;;;;;;5090595;28;20220;-43
2021/05/03 09:51:08;;;;;;;2.38;1.85;;;23.10;26.90;;;;;;5091613;28;20254;-45
2021/05/03 09:53:34;;;;;;;1.60;1.50;;;23.10;26.80;;;;;;5087083;28;20255;-41
2021/05/03 09:56:00;;;;;;;2.90;1.95;;;23.10;26.90;;;;;;5089176;28;20227;-47
2021/05/03 09:58:26;;;;;;;2.85;1.75;;;23.10;26.70;;;;;;5090317;28;20699;-48
2021/05/03 10:00:52;;;;;;;1.75;1.60;;;23.10;26.70;;;;;;5088609;28;20253;-48
2021/05/03 10:03:18;;;;;;;1.83;1.73;;;23.20;27.70;;;;;;5089332;28;20712;-35
2021/05/03 10:05:44;;;;;;;3.67;1.60;;;23.20;27.40;;;;;;5088534;28;20208;-37
2021/05/03 10:08:10;;;;;;;1.57;1.47;;;23.20;27.50;;;;;;5087596;28;20225;-38
2021/05/03 10:10:38;;;;;;;1.67;1.57;;;23.20;27.00;;;;;;5091034;28;20201;-34
2021/05/03 10:13:04;;;;;;;2.08;1.70;;;23.20;26.80;;;;;;5088336;28;20280;-42
2021/05/03 10:15:30;;;;;;;1.70;1.48;;;23.10;27.20;;;;;;5075741;28;20193;-39
2021/05/03 10:17:56;;;;;;;2.30;1.65;;;23.20;27.00;;;;;;5085321;28;20274;-38
2021/05/03 10:20:22;;;;;;;1.98;1.80;;;23.20;27.40;;;;;;5089743;28;20573;-41
2021/05/03 10:22:49;;;;;;;2.25;1.90;;;23.20;27.60;;;;;;5089798;28;20200;-42
2021/05/03 10:25:15;;;;;;;3.28;1.83;;;23.20;27.70;;;;;;5088619;28;20207;-47
2021/05/03 10:27:41;;;;;;;6.32;3.40;;;23.20;27.70;;;;;;5089659;28;20575;-45
2021/05/03 10:30:07;;;;;;;9.10;3.40;;;23.20;28.10;;;;;;5076264;28;20201;-38
2021/05/03 10:32:35;;;;;;;4.82;2.80;;;23.20;27.70;;;;;;5087526;28;20200;-33
2021/05/03 10:35:02;;;;;;;5.95;3.58;;;23.30;28.10;;;;;;5088609;28;20211;-44
2021/05/03 10:37:28;;;;;;;5.28;3.35;;;23.20;27.60;;;;;;5090107;28;20767;-33
2021/05/03 10:39:54;;;;;;;4.72;3.72;;;23.20;27.50;;;;;;5089625;28;20201;-41
2021/05/03 10:42:20;;;;;;;8.50;4.15;;;23.20;27.30;;;;;;5088310;28;20211;-42
2021/05/03 10:44:46;;;;;;;5.68;3.65;;;23.20;27.50;;;;;;5085042;28;20213;-35
2021/05/03 10:47:12;;;;;;;9.30;3.92;;;23.20;27.40;;;;;;5087467;28;20543;-53
2021/05/03 10:49:40;;;;;;;6.38;4.43;;;23.20;27.30;;;;;;5089569;28;20204;-51
2021/05/03 10:52:08;;;;;;;7.35;4.60;;;23.20;27.20;;;;;;5086359;28;20360;-34
2021/05/03 10:54:38;;;;;;;7.82;4.50;;;23.20;27.30;;;;;;5086706;28;20640;-39
2021/05/03 10:57:04;;;;;;;6.20;3.80;;;23.20;27.20;;;;;;5086351;28;20763;-49
2021/05/03 10:59:30;;;;;;;10.75;4.53;;;23.20;27.20;;;;;;5089967;28;20192;-44
2021/05/03 11:01:56;;;;;;;8.10;4.20;;;23.20;27.10;;;;;;5083544;28;20204;-35
2021/05/03 11:04:22;;;;;;;5.88;4.00;;;23.20;27.00;;;;;;5081420;28;20201;-48
2021/05/03 11:06:48;;;;;;;4.43;3.70;;;23.20;27.00;;;;;;5086698;28;20217;-45
2021/05/03 11:09:14;;;;;;;7.55;4.22;;;23.20;27.20;;;;;;5086914;28;20223;-45
2021/05/03 11:11:40;;;;;;;6.47;3.95;;;23.10;27.30;;;;;;5089652;28;20212;-37
2021/05/03 11:14:06;;;;;;;5.75;3.28;;;23.20;27.30;;;;;;5088362;28;20201;-48
2021/05/03 11:16:32;;;;;;;7.22;3.92;;;23.10;27.30;;;;;;5088984;28;20244;-42
2021/05/03 11:18:58;;;;;;;7.10;4.47;;;23.20;27.40;;;;;;5088019;28;20230;-41
2021/05/03 11:21:25;;;;;;;8.90;6.45;;;23.20;27.40;;;;;;5087899;28;20596;-37
2021/05/03 11:23:51;;;;;;;13.07;9.00;;;23.20;27.40;;;;;;5083139;28;20208;-34
2021/05/03 11:26:17;;;;;;;19.55;11.52;;;23.20;27.60;;;;;;5089193;28;20273;-46
2021/05/03 11:28:45;;;;;;;17.25;12.40;;;23.20;27.60;;;;;;5088381;28;20539;-36
2021/05/03 11:31:11;;;;;;;19.65;12.30;;;23.20;27.70;;;;;;5093030;28;20195;-45
2021/05/03 11:33:40;;;;;;;17.52;11.70;;;23.20;27.70;;;;;;5093207;28;20196;-41
2021/05/03 11:36:06;;;;;;;18.48;12.40;;;23.20;27.80;;;;;;5092575;28;20228;-44
2021/05/03 11:38:37;;;;;;;18.42;12.90;;;23.20;27.80;;;;;;5092898;28;20282;-35
2021/05/03 11:41:08;;;;;;;19.38;11.50;;;23.20;27.70;;;;;;5078127;28;20199;-46
2021/05/03 11:43:57;;;;;;;18.40;11.23;;;23.20;27.80;;;;;;5091110;28;20293;-42
2021/05/03 11:46:31;;;;;;;16.02;11.05;;;23.20;27.70;;;;;;5080666;28;20232;-39
2021/05/03 11:48:57;;;;;;;15.73;10.20;;;23.20;27.70;;;;;;5092457;28;20200;-35
2021/05/03 11:51:23;;;;;;;15.27;9.20;;;23.20;27.70;;;;;;5091810;28;20290;-40
2021/05/03 11:53:49;;;;;;;15.13;9.30;;;23.20;27.70;;;;;;5091042;28;20640;-35
2021/05/03 11:56:15;;;;;;;12.18;8.93;;;23.20;27.50;;;;;;5092078;28;20228;-40
2021/05/03 11:58:41;;;;;;;14.50;9.57;;;23.10;27.50;;;;;;5089962;28;20560;-49
2021/05/03 12:01:07;;;;;;;12.07;7.88;;;23.10;27.30;;;;;;5093428;28;20212;-34
2021/05/03 12:03:33;;;;;;;14.10;8.73;;;23.10;27.20;;;;;;5092050;28;20597;-43
2021/05/03 12:05:59;;;;;;;11.43;8.02;;;23.10;27.10;;;;;;5093827;28;20201;-37
2021/05/03 12:08:25;;;;;;;11.32;6.82;;;23.10;27.00;;;;;;5088032;28;20582;-42
2021/05/03 12:10:51;;;;;;;11.38;6.68;;;23.10;27.00;;;;;;5092376;28;20261;-41
2021/05/03 12:13:19;;;;;;;11.07;6.90;;;23.20;27.00;;;;;;5091045;28;20560;-34
2021/05/03 12:15:45;;;;;;;9.35;6.70;;;23.20;27.00;;;;;;5090012;28;20387;-35
2021/05/03 12:18:11;;;;;;;7.65;5.45;;;23.20;27.10;;;;;;5088999;28;20237;-39
2021/05/03 12:20:37;;;;;;;9.05;5.75;;;23.20;27.00;;;;;;5091525;28;20332;-39
2021/05/03 12:23:04;;;;;;;7.60;5.28;;;23.10;26.80;;;;;;5091540;28;20224;-40
2021/05/03 12:25:31;;;;;;;10.25;5.80;;;23.10;26.70;;;;;;5091580;28;20629;-33
2021/05/03 12:27:57;;;;;;;6.32;4.88;;;23.10;26.70;;;;;;5092252;28;20230;-38
2021/05/03 12:30:23;;;;;;;7.10;4.75;;;23.10;26.60;;;;;;5085029;28;20280;-35
2021/05/03 12:32:49;;;;;;;8.00;5.43;;;23.10;26.60;;;;;;5092193;28;20664;-35
2021/05/03 12:35:15;;;;;;;9.65;5.20;;;23.10;26.50;;;;;;5091115;28;20205;-39
2021/05/03 12:37:41;;;;;;;6.97;4.65;;;23.10;26.60;;;;;;5091645;28;20240;-39
2021/05/03 12:40:07;;;;;;;6.55;4.53;;;23.20;26.60;;;;;;5090789;28;20560;-39
2021/05/03 12:42:33;;;;;;;7.65;4.50;;;23.20;26.50;;;;;;5091518;28;20188;-50
2021/05/03 12:45:01;;;;;;;6.07;4.38;;;23.20;26.30;;;;;;5090975;28;20207;-46
2021/05/03 12:47:43;;;;;;;6.57;4.40;;;23.20;26.40;;;;;;5091993;28;20220;-45